createdAt,value
2023-03-18T00:00:11.347Z,100712.59
2023-03-18T00:02:40.167Z,100718.75
2023-03-18T00:05:08.336Z,100726.75
2023-03-18T00:07:37.337Z,100740.22
2023-03-18T00:10:05.409Z,100738.00
2023-03-18T00:12:33.124Z,100737.41
2023-03-18T00:14:59.941Z,100737.84
2023-03-18T00:17:26.957Z,100743.28
2023-03-18T00:19:53.821Z,100737.50
2023-03-18T00:22:20.434Z,100744.00
2023-03-18T00:24:48.929Z,100745.53
2023-03-18T00:27:15.550Z,100735.44
2023-03-18T00:29:42.109Z,100744.25
2023-03-18T00:32:09.062Z,100750.63
2023-03-18T00:34:35.560Z,100738.94
2023-03-18T00:37:02.108Z,100739.66
2023-03-18T00:39:32.786Z,100747.19
2023-03-18T00:41:59.419Z,100758.72
2023-03-18T00:44:26.247Z,100763.66
2023-03-18T00:46:52.912Z,100765.63
2023-03-18T00:49:19.781Z,100767.28
2023-03-18T00:51:46.689Z,100761.88
2023-03-18T00:54:17.908Z,100755.63
2023-03-18T00:56:44.442Z,100752.72
2023-03-18T00:59:11.762Z,100763.56
2023-03-18T01:01:39.072Z,100754.56
2023-03-18T01:04:06.861Z,100754.00
2023-03-18T01:06:35.021Z,100746.09
2023-03-18T01:09:02.561Z,100746.22
2023-03-18T01:11:29.817Z,100742.09
2023-03-18T01:13:57.393Z,100744.22
2023-03-18T01:16:24.250Z,100748.34
2023-03-18T01:18:51.187Z,100749.63
2023-03-18T01:21:18.397Z,100744.06
2023-03-18T01:23:51.230Z,100751.59
2023-03-18T01:26:17.807Z,100754.31
2023-03-18T01:28:45.701Z,100760.78
2023-03-18T01:31:13.782Z,100759.72
2023-03-18T01:33:41.529Z,100762.66
2023-03-18T01:36:09.396Z,100754.31
2023-03-18T01:38:36.108Z,100757.25
2023-03-18T01:41:11.105Z,100758.06
2023-03-18T01:43:40.650Z,100762.66
2023-03-18T01:46:40.152Z,100746.44
2023-03-18T01:49:12.700Z,100759.13
2023-03-18T01:51:43.610Z,100755.00
2023-03-18T01:54:12.933Z,100755.25
2023-03-18T01:56:41.364Z,100746.06
2023-03-18T01:59:09.951Z,100751.47
2023-03-18T02:01:39.767Z,100758.53
2023-03-18T02:04:09.086Z,100758.53
2023-03-18T02:06:38.419Z,100760.66
2023-03-18T02:09:06.015Z,100760.66
2023-03-18T02:11:35.881Z,100761.94
2023-03-18T02:14:04.179Z,100758.41
2023-03-18T02:16:38.320Z,100758.41
2023-03-18T02:19:20.334Z,100768.63
2023-03-18T02:22:03.039Z,100765.75
2023-03-18T02:24:56.937Z,100773.06
2023-03-18T02:27:26.496Z,100774.94
2023-03-18T02:29:57.309Z,100769.53
2023-03-18T02:32:28.500Z,100774.50
2023-03-18T02:34:56.332Z,100765.31
2023-03-18T02:37:23.130Z,100760.75
2023-03-18T02:39:50.561Z,100761.56
2023-03-18T02:42:31.438Z,100761.78
2023-03-18T02:45:00.251Z,100769.91
2023-03-18T02:47:44.837Z,100776.59
2023-03-18T02:50:11.886Z,100781.16
2023-03-18T02:52:38.865Z,100777.66
2023-03-18T02:55:07.136Z,100786.59
2023-03-18T02:57:35.872Z,100779.75
2023-03-18T03:00:02.293Z,100776.69
2023-03-18T03:02:28.904Z,100792.53
2023-03-18T03:04:55.480Z,100780.53
2023-03-18T03:07:26.728Z,100781.00
2023-03-18T03:09:54.251Z,100784.28
2023-03-18T03:12:21.403Z,100783.22
2023-03-18T03:14:51.641Z,100790.28
2023-03-18T03:17:18.174Z,100780.53
2023-03-18T03:19:45.795Z,100788.03
2023-03-18T03:22:14.192Z,100780.41
2023-03-18T03:24:40.919Z,100793.69
2023-03-18T03:27:07.561Z,100786.88
2023-03-18T03:29:34.044Z,100791.09
2023-03-18T03:32:00.452Z,100802.72
2023-03-18T03:34:27.170Z,100798.16
2023-03-18T03:36:53.645Z,100811.44
2023-03-18T03:39:20.177Z,100801.44
2023-03-18T03:41:46.626Z,100799.34
2023-03-18T03:44:15.629Z,100804.28
2023-03-18T03:46:42.409Z,100807.56
2023-03-18T03:49:09.133Z,100807.56
2023-03-18T03:51:36.446Z,100818.16
2023-03-18T03:54:03.333Z,100809.81
2023-03-18T03:56:31.975Z,100816.44
2023-03-18T03:58:58.471Z,100817.50
2023-03-18T04:01:34.572Z,100814.34
2023-03-18T04:04:02.966Z,100809.97
2023-03-18T04:06:31.424Z,100811.25
2023-03-18T04:09:00.994Z,100820.81
2023-03-18T04:11:27.485Z,100825.00
2023-03-18T04:13:54.643Z,100821.25
2023-03-18T04:16:21.286Z,100819.59
2023-03-18T04:18:47.745Z,100822.75
2023-03-18T04:21:14.842Z,100820.03
2023-03-18T04:23:49.461Z,100823.81
2023-03-18T04:26:16.604Z,100824.63
2023-03-18T04:28:43.024Z,100826.50
2023-03-18T04:31:13.548Z,100823.81
2023-03-18T04:33:40.815Z,100838.38
2023-03-18T04:36:08.478Z,100825.09
2023-03-18T04:38:35.162Z,100824.28
2023-03-18T04:41:03.656Z,100825.56
2023-03-18T04:43:30.074Z,100826.38
2023-03-18T04:45:56.902Z,100817.66
2023-03-18T04:48:23.854Z,100820.38
2023-03-18T04:50:51.598Z,100813.31
2023-03-18T04:53:24.256Z,100823.91
2023-03-18T04:55:51.552Z,100823.53
2023-03-18T04:58:20.878Z,100830.59
2023-03-18T05:01:01.983Z,100830.84
2023-03-18T05:03:34.457Z,100824.19
2023-03-18T05:06:01.501Z,100824.78
2023-03-18T05:08:38.137Z,100832.09
2023-03-18T05:11:05.751Z,100826.69
2023-03-18T05:13:34.968Z,100831.03
2023-03-18T05:16:01.599Z,100840.19
2023-03-18T05:18:28.104Z,100831.50
2023-03-18T05:20:58.859Z,100836.91
2023-03-18T05:23:25.397Z,100841.47
2023-03-18T05:25:55.142Z,100840.66
2023-03-18T05:28:23.558Z,100849.59
2023-03-18T05:31:10.400Z,100847.72
2023-03-18T05:33:42.164Z,100851.47
2023-03-18T05:36:11.568Z,100858.53
2023-03-18T05:38:47.860Z,100860.41
2023-03-18T05:41:14.319Z,100871.00
2023-03-18T05:43:42.568Z,100862.28
2023-03-18T05:46:09.398Z,100865.22
2023-03-18T05:48:57.567Z,100868.97
2023-03-18T05:51:28.933Z,100874.16
2023-03-18T05:53:56.500Z,100877.91
2023-03-18T05:56:27.221Z,100879.78
2023-03-18T05:58:57.801Z,100876.03
2023-03-18T06:01:31.489Z,100873.56
2023-03-18T06:03:58.205Z,100876.88
2023-03-18T06:06:24.783Z,100875.22
2023-03-18T06:08:51.748Z,100883.31
2023-03-18T06:11:18.880Z,100886.84
2023-03-18T06:13:45.320Z,100890.38
2023-03-18T06:16:12.169Z,100890.38
2023-03-18T06:18:38.972Z,100890.38
2023-03-18T06:21:06.416Z,100894.75
2023-03-18T06:23:33.734Z,100885.81
2023-03-18T06:26:00.285Z,100886.41
2023-03-18T06:28:31.401Z,100885.13
2023-03-18T06:31:01.716Z,100901.97
2023-03-18T06:33:29.935Z,100906.31
2023-03-18T06:35:56.442Z,100910.44
2023-03-18T06:38:22.949Z,100922.09
2023-03-18T06:40:49.774Z,100921.72
2023-03-18T06:43:16.185Z,100928.78
2023-03-18T06:45:44.330Z,100926.44
2023-03-18T06:48:11.825Z,100925.84
2023-03-18T06:50:42.042Z,100924.34
2023-03-18T06:53:18.607Z,100928.25
2023-03-18T06:55:47.020Z,100930.28
2023-03-18T06:58:13.580Z,100937.25
2023-03-18T07:00:47.608Z,100920.16
2023-03-18T07:03:21.554Z,100924.44
2023-03-18T07:05:48.912Z,100935.03
2023-03-18T07:08:16.635Z,100943.75
2023-03-18T07:10:43.128Z,100934.56
2023-03-18T07:13:13.342Z,100941.19
2023-03-18T07:15:41.053Z,100940.88
2023-03-18T07:18:07.645Z,100944.84
2023-03-18T07:20:34.392Z,100946.44
2023-03-18T07:23:02.017Z,100947.06
2023-03-18T07:25:30.118Z,100950.38
2023-03-18T07:28:00.136Z,100958.63
2023-03-18T07:30:28.565Z,100965.50
2023-03-18T07:32:55.721Z,100965.97
2023-03-18T07:35:22.574Z,100971.53
2023-03-18T07:37:49.067Z,100973.19
2023-03-18T07:40:16.765Z,100970.91
2023-03-18T07:42:43.208Z,100965.72
2023-03-18T07:45:10.592Z,100968.19
2023-03-18T07:47:37.648Z,100979.78
2023-03-18T07:50:05.653Z,100977.03
2023-03-18T07:52:32.137Z,100978.72
2023-03-18T07:54:58.584Z,100978.94
2023-03-18T07:57:25.966Z,100979.97
2023-03-18T07:59:52.717Z,100980.75
2023-03-18T08:02:20.358Z,100981.13
2023-03-18T08:04:46.960Z,100986.34
2023-03-18T08:07:13.452Z,100976.41
2023-03-18T08:09:40.424Z,100975.91
2023-03-18T08:12:07.300Z,100978.63
2023-03-18T08:14:34.037Z,100980.06
2023-03-18T08:17:00.436Z,100980.22
2023-03-18T08:19:27.350Z,100985.28
2023-03-18T08:21:54.503Z,100988.16
2023-03-18T08:24:21.867Z,100978.31
2023-03-18T08:26:48.397Z,100982.63
2023-03-18T08:29:14.910Z,100977.31
2023-03-18T08:31:41.463Z,100984.69
2023-03-18T08:34:08.580Z,100982.69
2023-03-18T08:36:35.060Z,100971.78
2023-03-18T08:39:01.786Z,100969.91
2023-03-18T08:41:28.551Z,100982.72
2023-03-18T08:43:57.334Z,100982.91
2023-03-18T08:46:23.944Z,100987.13
2023-03-18T08:48:51.384Z,100986.22
2023-03-18T08:51:17.822Z,100985.22
2023-03-18T08:53:44.219Z,100976.44
2023-03-18T08:56:10.851Z,100981.09
2023-03-18T08:58:37.914Z,100981.31
2023-03-18T09:01:05.232Z,100984.13
2023-03-18T09:03:32.207Z,100979.56
2023-03-18T09:05:58.738Z,100976.84
2023-03-18T09:08:25.635Z,100985.47
2023-03-18T09:10:56.438Z,100987.09
2023-03-18T09:13:23.744Z,100992.59
2023-03-18T09:15:50.268Z,100997.19
2023-03-18T09:18:18.343Z,100997.09
2023-03-18T09:20:45.927Z,101005.72
2023-03-18T09:23:13.946Z,101002.44
2023-03-18T09:25:42.698Z,100997.34
2023-03-18T09:28:09.672Z,101010.50
2023-03-18T09:30:36.505Z,101010.72
2023-03-18T09:33:03.476Z,101008.22
2023-03-18T09:35:30.460Z,101010.50
2023-03-18T09:37:57.268Z,101009.91
2023-03-18T09:40:29.209Z,101010.81
2023-03-18T09:43:13.212Z,101017.66
2023-03-18T09:46:08.226Z,101024.31
2023-03-18T09:49:00.472Z,101018.72
2023-03-18T09:51:47.950Z,101014.69
2023-03-18T09:54:22.825Z,101023.59
2023-03-18T09:56:52.773Z,101020.41
2023-03-18T09:59:29.446Z,101024.72
2023-03-18T10:01:57.233Z,101036.72
2023-03-18T10:04:33.529Z,101030.00
2023-03-18T10:07:05.259Z,101030.06
2023-03-18T10:09:46.981Z,101035.22
2023-03-18T10:12:38.372Z,101042.03
2023-03-18T10:15:10.916Z,101030.41
2023-03-18T10:17:41.633Z,101034.88
2023-03-18T10:20:32.238Z,101041.06
2023-03-18T10:23:14.719Z,101039.16
2023-03-18T10:25:52.397Z,101037.28
2023-03-18T10:28:49.182Z,101050.38
2023-03-18T10:31:29.642Z,101045.31
2023-03-18T10:34:07.061Z,101037.69
2023-03-18T10:36:59.855Z,101034.00
2023-03-18T10:39:28.667Z,101027.69
2023-03-18T10:41:58.340Z,101037.34
2023-03-18T10:44:32.711Z,101040.16
2023-03-18T10:47:01.335Z,101043.81
2023-03-18T10:49:33.630Z,101029.72
2023-03-18T10:52:45.775Z,101028.06
2023-03-18T10:55:16.845Z,101025.41
2023-03-18T10:57:43.710Z,101014.00
2023-03-18T11:00:29.714Z,101011.28
2023-03-18T11:02:57.121Z,101003.94
2023-03-18T11:05:27.032Z,101020.72
2023-03-18T11:08:05.290Z,101004.84
2023-03-18T11:10:39.630Z,101010.00
2023-03-18T11:13:06.547Z,101015.38
2023-03-18T11:15:39.738Z,101011.28
2023-03-18T11:18:14.151Z,101018.88
2023-03-18T13:02:38.237Z,101023.31
2023-03-18T13:05:13.959Z,101019.91
2023-03-18T13:07:52.341Z,101020.84
2023-03-18T13:10:22.501Z,101016.22
2023-03-18T13:12:56.767Z,101020.91
2023-03-18T13:15:29.181Z,101016.28
2023-03-18T13:18:02.196Z,101016.53
2023-03-18T13:20:38.674Z,101016.03
2023-03-18T13:23:31.200Z,101017.63
2023-03-18T13:26:22.295Z,101011.72
2023-03-18T13:29:16.703Z,101015.88
2023-03-18T13:31:58.959Z,101005.28
2023-03-18T13:34:43.829Z,101017.56
2023-03-18T13:37:32.949Z,101008.25
2023-03-18T13:40:17.960Z,101007.53
2023-03-18T13:42:46.606Z,101018.78
2023-03-18T13:45:24.259Z,101006.81
2023-03-18T13:48:05.449Z,101012.88
2023-03-18T13:50:37.970Z,101010.75
2023-03-18T13:53:06.161Z,101018.97
2023-03-18T13:55:33.045Z,101018.72
2023-03-18T13:58:15.169Z,101016.50
2023-03-18T14:01:06.980Z,101015.75
2023-03-18T14:03:41.346Z,101010.84
2023-03-18T14:06:08.424Z,101004.28
2023-03-18T14:08:39.253Z,101016.09
2023-03-18T14:11:26.872Z,101005.06
2023-03-18T14:14:00.475Z,100993.09
2023-03-18T14:16:51.370Z,100990.63
2023-03-18T14:19:26.280Z,100992.16
2023-03-18T14:22:04.579Z,100992.78
2023-03-18T14:24:31.698Z,100985.16
2023-03-18T14:26:58.044Z,100988.69
2023-03-18T14:29:27.690Z,100996.81
2023-03-18T14:31:59.748Z,100991.06
2023-03-18T14:34:28.570Z,101000.59
2023-03-18T14:36:57.609Z,100985.31
2023-03-18T14:39:38.072Z,100993.59
2023-03-18T14:42:13.537Z,100987.59
2023-03-18T14:44:49.158Z,100985.84
2023-03-18T14:47:37.795Z,100986.44
2023-03-18T14:50:28.621Z,100978.03
2023-03-18T14:53:06.746Z,100971.38
2023-03-18T14:55:35.673Z,100962.47
2023-03-18T14:58:02.695Z,100964.28
2023-03-18T15:00:33.461Z,100965.28
2023-03-18T15:03:13.312Z,100956.78
2023-03-18T15:05:42.040Z,100947.56
2023-03-18T15:08:17.253Z,100940.50
2023-03-18T15:10:49.830Z,100949.16
2023-03-18T15:13:19.413Z,100949.75
2023-03-18T15:15:46.963Z,100946.38
2023-03-18T15:18:24.405Z,100943.09
2023-03-18T15:20:55.496Z,100945.84
2023-03-18T15:23:40.175Z,100946.38
2023-03-18T15:26:09.771Z,100938.38
2023-03-18T15:28:36.385Z,100930.69
2023-03-18T15:31:05.601Z,100935.84
2023-03-18T15:33:38.161Z,100946.13
2023-03-18T15:36:12.619Z,100940.69
2023-03-18T15:38:46.619Z,100940.81
2023-03-18T15:41:13.911Z,100933.69
2023-03-18T15:43:49.036Z,100941.22
2023-03-18T15:46:28.409Z,100945.75
2023-03-18T15:48:56.786Z,100939.47
2023-03-18T15:51:25.119Z,100944.41
2023-03-18T15:53:55.294Z,100936.75
2023-03-18T15:56:31.514Z,100937.72
2023-03-18T15:59:14.373Z,100940.16
2023-03-18T16:01:40.935Z,100938.88
2023-03-18T16:04:12.140Z,100934.53
2023-03-18T16:06:38.745Z,100945.44
2023-03-18T16:09:23.327Z,100937.25
2023-03-18T16:11:54.658Z,100935.25
2023-03-18T16:14:25.890Z,100935.25
2023-03-18T16:16:53.080Z,100937.25
2023-03-18T16:19:27.916Z,100937.75
2023-03-18T16:21:56.793Z,100936.63
2023-03-18T16:24:24.342Z,100940.84
2023-03-18T16:26:53.176Z,100939.63
2023-03-18T16:29:31.761Z,100944.91
2023-03-18T16:31:59.535Z,100942.59
2023-03-18T16:34:26.236Z,100943.63
2023-03-18T16:36:53.422Z,100941.16
2023-03-18T16:39:24.345Z,100943.00
2023-03-18T16:41:52.206Z,100945.66
2023-03-18T16:44:21.214Z,100942.03
2023-03-18T16:46:51.646Z,100938.09
2023-03-18T16:49:24.454Z,100940.75
2023-03-18T16:51:51.601Z,100942.59
2023-03-18T16:54:21.060Z,100934.03
2023-03-18T16:56:49.931Z,100949.41
2023-03-18T16:59:17.257Z,100949.28
2023-03-18T17:01:43.985Z,100943.69
2023-03-18T17:04:19.529Z,100949.56
2023-03-18T17:06:46.200Z,100947.84
2023-03-18T17:09:12.650Z,100940.09
2023-03-18T17:11:40.273Z,100940.59
2023-03-18T17:14:10.809Z,100943.47
2023-03-18T17:16:38.523Z,100940.13
2023-03-18T17:19:05.315Z,100954.94
2023-03-18T17:21:32.022Z,100945.06
2023-03-18T17:23:58.678Z,100948.75
2023-03-18T17:26:25.624Z,100956.81
2023-03-18T17:28:53.840Z,100939.56
2023-03-18T17:31:20.860Z,100940.91
2023-03-18T17:33:47.406Z,100942.94
2023-03-18T17:36:13.799Z,100949.59
2023-03-18T17:38:40.303Z,100939.56
2023-03-18T17:41:16.340Z,100941.69
2023-03-18T17:43:42.769Z,100936.41
2023-03-18T17:46:09.699Z,100948.00
2023-03-18T17:48:38.507Z,100937.50
2023-03-18T17:51:10.570Z,100939.56
2023-03-18T17:53:40.191Z,100942.19
2023-03-18T17:56:10.573Z,100939.59
2023-03-18T17:58:37.841Z,100933.59
2023-03-18T18:01:07.484Z,100940.81
2023-03-18T18:03:36.801Z,100944.50
2023-03-18T18:06:03.556Z,100950.91
2023-03-18T18:08:31.647Z,100960.22
2023-03-18T18:11:04.688Z,100957.56
2023-03-18T18:13:31.252Z,100958.50
2023-03-18T18:15:57.764Z,100964.88
2023-03-18T18:18:27.450Z,100964.78
2023-03-18T18:21:00.064Z,100972.53
2023-03-18T18:23:34.623Z,100966.19
2023-03-18T18:26:10.499Z,100967.16
2023-03-18T18:28:39.466Z,100958.63
2023-03-18T18:31:09.206Z,100966.19
2023-03-18T18:33:37.343Z,100966.38
2023-03-18T18:36:04.471Z,100967.94
2023-03-18T18:38:31.012Z,100967.09
2023-03-18T18:40:58.489Z,100962.50
2023-03-18T18:43:25.923Z,100966.38
2023-03-18T18:45:54.551Z,100971.03
2023-03-18T18:48:41.380Z,100975.97
2023-03-18T18:51:15.917Z,100978.44
2023-03-18T18:53:43.608Z,100973.84
2023-03-18T18:56:43.664Z,100973.59
2023-03-18T18:59:27.475Z,100981.75
2023-03-18T19:01:55.447Z,100976.91
2023-03-18T19:04:22.155Z,100980.69
2023-03-18T19:06:50.803Z,100970.41
2023-03-18T19:09:19.811Z,100970.22
2023-03-18T19:11:46.899Z,100972.91
2023-03-18T19:14:17.442Z,100978.34
2023-03-18T19:16:44.272Z,100967.00
2023-03-18T19:19:16.296Z,100972.78
2023-03-18T19:21:43.202Z,100965.72
2023-03-18T19:24:20.266Z,100968.66
2023-03-18T19:26:46.924Z,100971.38
2023-03-18T19:29:13.486Z,100968.66
2023-03-18T19:31:41.117Z,100965.94
2023-03-18T19:34:16.281Z,100970.31
2023-03-18T19:36:43.426Z,100965.94
2023-03-18T19:39:17.759Z,100963.00
2023-03-18T19:41:45.723Z,100963.00
2023-03-18T19:44:21.553Z,100967.34
2023-03-18T19:46:50.053Z,100971.38
2023-03-18T19:49:21.540Z,100973.25
2023-03-18T19:51:49.712Z,100975.16
2023-03-18T19:54:34.471Z,100986.59
2023-03-18T19:57:03.852Z,100999.56
2023-03-18T19:59:38.012Z,101008.19
2023-03-18T20:02:27.652Z,101033.66
2023-03-18T20:04:59.298Z,101032.25
2023-03-18T20:07:28.421Z,101033.78
2023-03-18T20:09:56.058Z,101035.22
2023-03-18T20:12:27.046Z,101041.56
2023-03-18T20:14:53.503Z,101046.50
2023-03-18T20:17:40.117Z,101046.50
2023-03-18T20:20:10.642Z,101051.69
2023-03-18T20:22:40.717Z,101049.00
2023-03-18T20:25:08.378Z,101050.66
2023-03-18T20:27:34.892Z,101060.19
2023-03-18T20:30:01.602Z,101059.38
2023-03-18T20:32:28.036Z,101062.41
2023-03-18T20:34:54.450Z,101055.06
2023-03-18T20:37:34.792Z,101055.41
2023-03-18T20:40:07.392Z,101056.78
2023-03-18T20:42:33.982Z,101049.34
2023-03-18T20:45:00.434Z,101045.69
2023-03-18T20:47:26.890Z,101038.00
2023-03-18T20:49:54.704Z,101039.75
2023-03-18T20:52:27.958Z,101038.81
2023-03-18T20:54:56.560Z,101036.19
2023-03-18T20:57:23.742Z,101033.34
2023-03-18T20:59:50.285Z,101031.34
2023-03-18T21:02:35.062Z,101035.78
2023-03-18T21:05:03.162Z,101038.94
2023-03-18T21:07:30.115Z,101042.13
2023-03-18T21:09:56.616Z,101039.28
2023-03-18T21:12:23.985Z,101041.81
2023-03-18T21:14:50.462Z,101046.28
2023-03-18T21:17:19.538Z,101046.97
2023-03-18T21:19:48.151Z,101041.97
2023-03-18T21:22:21.570Z,101041.63
2023-03-18T21:24:49.412Z,101042.66
2023-03-18T21:27:21.651Z,101044.56
2023-03-18T21:29:52.083Z,101047.25
2023-03-18T21:32:25.951Z,101043.13
2023-03-18T21:34:53.287Z,101040.06
2023-03-18T21:37:22.180Z,101039.22
2023-03-18T21:39:49.614Z,101038.41
2023-03-18T21:42:19.344Z,101033.81
2023-03-18T21:44:46.015Z,101037.34
2023-03-18T21:47:18.419Z,101037.56
2023-03-18T21:49:45.798Z,101034.88
2023-03-18T21:52:33.417Z,101029.69
2023-03-18T21:55:01.272Z,101027.81
2023-03-18T21:57:29.388Z,101030.50
2023-03-18T21:59:56.174Z,101028.41
2023-03-18T22:02:27.864Z,101029.22
2023-03-18T22:04:58.350Z,101029.22
2023-03-18T22:07:26.986Z,101022.97
2023-03-18T22:09:54.135Z,101029.00
2023-03-18T22:12:27.502Z,101020.88
2023-03-18T22:14:54.939Z,101014.63
2023-03-18T22:17:31.816Z,101018.75
2023-03-18T22:19:59.962Z,101015.00
2023-03-18T22:22:29.901Z,101012.28
2023-03-18T22:24:56.716Z,101009.34
2023-03-18T22:27:29.696Z,101010.19
2023-03-18T22:29:58.638Z,101009.72
2023-03-18T22:32:41.032Z,101007.84
2023-03-18T22:35:18.049Z,101002.41
2023-03-18T22:37:45.682Z,101004.91
2023-03-18T22:40:18.311Z,100997.41
2023-03-18T22:42:47.244Z,100995.50
2023-03-18T22:45:20.015Z,101003.41
2023-03-18T22:47:46.642Z,101010.47
2023-03-18T22:50:13.280Z,101019.66
2023-03-18T22:52:39.808Z,101021.31
2023-03-18T22:55:24.008Z,101008.59
2023-03-18T22:57:50.966Z,101015.66
2023-03-18T23:00:21.166Z,101017.31
2023-03-18T23:02:50.169Z,101014.38
2023-03-18T23:05:18.756Z,101009.78
2023-03-18T23:07:45.345Z,101007.91
2023-03-18T23:10:12.050Z,101012.25
2023-03-18T23:12:38.647Z,101009.31
2023-03-18T23:15:07.258Z,101012.41
2023-03-18T23:17:33.682Z,101018.03
2023-03-18T23:20:00.144Z,101008.03
2023-03-18T23:22:33.235Z,101008.03
2023-03-18T23:25:00.126Z,101012.41
2023-03-18T23:27:28.625Z,101017.59
2023-03-18T23:29:55.801Z,101009.72
2023-03-18T23:32:25.172Z,101011.72
2023-03-18T23:34:52.133Z,101017.59
2023-03-18T23:37:18.947Z,101010.53
2023-03-18T23:39:46.397Z,101014.91
2023-03-18T23:42:17.736Z,101019.69
2023-03-18T23:44:44.658Z,101016.38
2023-03-18T23:47:12.139Z,101022.50
2023-03-18T23:49:39.234Z,101022.81
2023-03-18T23:52:09.063Z,101028.31
2023-03-18T23:54:35.852Z,101024.03
2023-03-18T23:57:03.476Z,101028.09
2023-03-18T23:59:30.581Z,101020.88
